Time;durP1;ratioP1;P1;durP2;ratioP2;P2;SDS_P1;SDS_P2;PMS_P1;PMS_P2;Temp;Humidity;BMP_temperature;BMP_pressure;BME280_temperature;BME280_humidity;BME280_pressure;Samples;Min_cycle;Max_cycle;Signal;HPM_P1;HPM_P2
2023/01/10 00:01:40;;;;;;;0.50;0.20;;;6.90;99.90;;;;;;4805196;29;20485;-75
2023/01/10 00:04:09;;;;;;;0.50;0.20;;;6.90;99.90;;;;;;4805726;29;20454;-74
2023/01/10 00:06:37;;;;;;;0.50;0.10;;;6.80;99.90;;;;;;4805888;29;20462;-74
2023/01/10 00:09:05;;;;;;;0.60;0.30;;;6.80;99.90;;;;;;4816306;29;20488;-74
2023/01/10 00:14:19;;;;;;;0.50;0.10;;;6.70;99.90;;;;;;4808344;29;21029;-75
2023/01/10 00:16:47;;;;;;;0.50;0.10;;;6.80;99.90;;;;;;4806250;29;20454;-74
2023/01/10 00:19:16;;;;;;;0.50;0.10;;;6.80;99.90;;;;;;4806797;29;20454;-73
2023/01/10 00:21:44;;;;;;;0.70;0.47;;;6.90;99.90;;;;;;4806872;29;20482;-73
2023/01/10 00:24:18;;;;;;;0.50;0.10;;;6.90;99.90;;;;;;4790598;29;20461;-74
2023/01/10 00:26:50;;;;;;;0.60;0.30;;;6.90;99.90;;;;;;4798676;30;20529;-74
2023/01/10 00:29:19;;;;;;;1.47;0.93;;;7.00;99.90;;;;;;4813179;29;20913;-74
2023/01/10 00:31:47;;;;;;;0.70;0.20;;;7.00;99.90;;;;;;4815299;29;20478;-74
2023/01/10 00:34:16;;;;;;;0.50;0.10;;;7.00;99.90;;;;;;4815014;29;20486;-74
2023/01/10 00:36:46;;;;;;;1.10;0.40;;;7.00;99.90;;;;;;4814138;29;20968;-75
2023/01/10 00:39:14;;;;;;;0.50;0.10;;;6.90;99.90;;;;;;4828111;29;20457;-74
2023/01/10 00:44:29;;;;;;;0.50;0.10;;;6.90;99.90;;;;;;4814419;29;20470;-75
2023/01/10 00:46:57;;;;;;;0.50;0.10;;;6.80;99.90;;;;;;4816776;29;20486;-75
2023/01/10 00:49:26;;;;;;;0.60;0.17;;;;;;;;;;4819700;29;20541;-74
2023/01/10 00:51:56;;;;;;;0.93;0.30;;;6.80;99.90;;;;;;4814472;29;20883;-74
2023/01/10 00:54:25;;;;;;;0.50;0.10;;;;;;;;;;4787361;30;20490;-75
2023/01/10 00:56:53;;;;;;;0.60;0.23;;;6.80;99.90;;;;;;4787584;30;20462;-73
2023/01/10 00:59:21;;;;;;;0.60;0.20;;;6.80;99.90;;;;;;4787482;30;20463;-74
2023/01/10 05:01:57;;;;;;;0.50;0.10;;;6.90;99.90;;;;;;5241915;24;20504;-73
2023/01/10 05:04:25;;;;;;;0.50;0.10;;;6.80;99.90;;;;;;4825108;29;20436;-73
2023/01/10 05:06:54;;;;;;;0.50;0.10;;;6.70;99.90;;;;;;4826347;29;20464;-71
2023/01/10 05:09:21;;;;;;;0.50;0.10;;;6.70;99.90;;;;;;4825783;29;20453;-72
2023/01/10 05:11:49;;;;;;;0.50;0.10;;;6.60;99.90;;;;;;4825426;29;20519;-73
2023/01/10 05:14:17;;;;;;;0.50;0.10;;;6.60;99.90;;;;;;4804973;24;1028537;-66
2023/01/10 05:16:45;;;;;;;1.60;0.30;;;6.60;99.90;;;;;;4823583;29;20449;-67
2023/01/10 05:19:14;;;;;;;0.50;0.20;;;6.60;99.90;;;;;;4819701;29;20548;-69
2023/01/10 05:21:42;;;;;;;0.50;0.10;;;6.60;99.90;;;;;;4808559;29;20515;-69
2023/01/10 05:24:10;;;;;;;1.00;0.90;;;6.50;99.90;;;;;;4808468;29;20450;-69
2023/01/10 05:26:38;;;;;;;0.50;0.20;;;6.50;99.90;;;;;;4808068;29;20457;-68
2023/01/10 05:29:05;;;;;;;0.70;0.20;;;6.50;99.90;;;;;;4807638;29;20450;-67
2023/01/10 05:31:33;;;;;;;0.50;0.10;;;6.40;99.90;;;;;;4807487;29;20445;-67
2023/01/10 05:34:02;;;;;;;1.43;0.30;;;6.30;99.90;;;;;;4808378;29;20451;-66
2023/01/10 05:36:31;;;;;;;2.43;1.07;;;6.30;99.90;;;;;;4820073;29;20461;-67
2023/01/10 05:38:59;;;;;;;0.50;0.20;;;6.20;99.90;;;;;;4828005;29;20480;-66
2023/01/10 05:41:26;;;;;;;0.50;0.10;;;6.20;99.90;;;;;;4815156;29;20451;-66
2023/01/10 05:43:54;;;;;;;0.50;0.10;;;6.20;99.90;;;;;;4820269;29;20480;-66
2023/01/10 05:46:22;;;;;;;0.70;0.40;;;6.20;99.90;;;;;;4816601;29;20981;-68
2023/01/10 05:48:52;;;;;;;1.30;0.67;;;6.20;99.90;;;;;;4815959;29;20454;-67
2023/01/10 05:51:19;;;;;;;0.50;0.10;;;6.20;99.90;;;;;;4816776;29;20458;-66
2023/01/10 05:53:48;;;;;;;0.50;0.10;;;6.30;99.90;;;;;;4816382;29;20443;-68
2023/01/10 05:56:17;;;;;;;0.50;0.30;;;6.40;99.90;;;;;;4816755;29;20497;-68
2023/01/10 05:58:45;;;;;;;0.60;0.30;;;6.50;99.90;;;;;;4817078;29;20484;-67
2023/01/10 06:01:16;;;;;;;0.50;0.10;;;6.50;99.90;;;;;;4815332;29;20458;-68
2023/01/10 06:03:44;;;;;;;0.50;0.10;;;6.60;99.90;;;;;;4815167;29;20458;-69
2023/01/10 06:06:12;;;;;;;0.50;0.10;;;6.60;99.90;;;;;;4816862;29;21002;-69
2023/01/10 06:08:40;;;;;;;0.50;0.10;;;6.60;99.90;;;;;;4821512;29;20453;-68
2023/01/10 06:11:09;;;;;;;0.50;0.10;;;6.60;99.90;;;;;;4832535;29;20453;-68
2023/01/10 06:13:36;;;;;;;0.50;0.10;;;6.60;99.90;;;;;;4815311;29;20891;-67
2023/01/10 06:16:05;;;;;;;0.50;0.10;;;6.60;99.90;;;;;;4808456;29;20493;-67
2023/01/10 06:18:33;;;;;;;0.50;0.10;;;6.60;99.90;;;;;;4811048;29;20874;-67
2023/01/10 06:21:00;;;;;;;0.50;0.10;;;6.70;99.90;;;;;;4821741;29;20459;-69
2023/01/10 06:23:29;;;;;;;0.50;0.10;;;6.70;99.90;;;;;;4807908;29;20463;-69
2023/01/10 06:25:57;;;;;;;0.50;0.10;;;6.70;99.90;;;;;;4807752;29;21033;-68
2023/01/10 06:28:26;;;;;;;0.50;0.20;;;6.70;99.90;;;;;;4808209;29;20942;-67
2023/01/10 06:30:54;;;;;;;1.53;0.73;;;6.60;99.90;;;;;;4808949;29;20453;-69
2023/01/10 06:33:21;;;;;;;0.50;0.20;;;6.60;99.90;;;;;;4811610;29;20450;-67
2023/01/10 06:35:49;;;;;;;0.50;0.10;;;6.60;99.90;;;;;;4813223;29;20489;-68
2023/01/10 06:38:17;;;;;;;0.50;0.10;;;6.50;99.90;;;;;;4810503;29;20454;-68
2023/01/10 06:40:45;;;;;;;0.60;0.30;;;4.30;99.90;;;;;;4811324;29;20488;-66
2023/01/10 06:43:13;;;;;;;0.50;0.10;;;6.50;99.90;;;;;;4809255;29;20454;-66
2023/01/10 06:45:42;;;;;;;0.50;0.10;;;6.50;99.90;;;;;;4808020;29;21005;-68
2023/01/10 06:48:10;;;;;;;0.50;0.10;;;6.60;99.90;;;;;;4807234;29;20504;-67
2023/01/10 06:50:38;;;;;;;0.50;0.10;;;6.60;99.90;;;;;;4813524;29;20457;-67
2023/01/10 06:53:06;;;;;;;0.50;0.10;;;6.60;99.90;;;;;;4812594;29;20450;-67
2023/01/10 06:55:33;;;;;;;0.50;0.10;;;6.70;99.90;;;;;;4824206;29;20518;-67
2023/01/10 06:58:03;;;;;;;0.60;0.40;;;6.70;99.90;;;;;;4808494;29;20461;-69
2023/01/10 07:00:31;;;;;;;0.60;0.30;;;6.70;99.90;;;;;;4818054;29;20819;-68
2023/01/10 07:03:01;;;;;;;7.60;6.87;;;6.70;99.90;;;;;;4814395;29;20469;-68
2023/01/10 07:05:29;;;;;;;0.70;0.43;;;6.70;99.90;;;;;;4817643;29;20819;-67
2023/01/10 07:08:00;;;;;;;0.50;0.10;;;6.70;99.90;;;;;;4813294;29;20453;-69
2023/01/10 07:10:27;;;;;;;2.20;0.30;;;6.70;99.90;;;;;;4814583;29;20522;-69
2023/01/10 07:12:56;;;;;;;0.50;0.10;;;6.80;99.90;;;;;;4816722;29;20462;-70
2023/01/10 07:15:24;;;;;;;1.10;0.87;;;6.80;99.90;;;;;;4814993;29;20952;-69
2023/01/10 07:17:52;;;;;;;0.60;0.30;;;6.80;99.90;;;;;;4813802;29;20459;-67
2023/01/10 07:20:21;;;;;;;0.50;0.10;;;6.80;99.90;;;;;;4809980;29;20849;-68
2023/01/10 07:22:54;;;;;;;0.50;0.10;;;6.70;99.90;;;;;;4805169;29;20450;-68
2023/01/10 07:25:22;;;;;;;1.27;1.17;;;6.60;99.90;;;;;;4810306;29;21057;-68
2023/01/10 07:27:49;;;;;;;0.70;0.30;;;6.60;99.90;;;;;;4823837;29;20450;-68
2023/01/10 07:30:17;;;;;;;1.90;1.80;;;6.50;99.90;;;;;;4808047;29;20473;-67
2023/01/10 07:32:45;;;;;;;1.37;0.60;;;6.40;99.90;;;;;;4805615;29;20454;-68
2023/01/10 07:35:13;;;;;;;0.60;0.20;;;6.40;99.90;;;;;;4805593;29;20481;-67
2023/01/10 07:37:42;;;;;;;0.60;0.47;;;6.40;99.90;;;;;;4805390;29;20458;-67
2023/01/10 07:40:11;;;;;;;1.13;1.03;;;6.40;99.90;;;;;;4810258;29;20545;-67
2023/01/10 07:42:41;;;;;;;0.50;0.10;;;6.40;99.90;;;;;;4805481;29;20507;-68
2023/01/10 07:45:09;;;;;;;0.50;0.10;;;6.50;99.90;;;;;;4806534;29;20539;-68
2023/01/10 07:47:37;;;;;;;0.50;0.10;;;6.50;99.90;;;;;;4805470;29;20462;-67
2023/01/10 07:50:06;;;;;;;0.50;0.10;;;6.60;99.90;;;;;;4803626;29;20957;-68
2023/01/10 07:52:33;;;;;;;0.50;0.20;;;6.60;99.90;;;;;;4806719;29;20460;-69
2023/01/10 07:55:03;;;;;;;0.70;0.63;;;6.50;99.90;;;;;;4805249;29;20474;-66
2023/01/10 07:57:30;;;;;;;0.83;0.70;;;6.50;99.90;;;;;;4805269;29;20562;-67
2023/01/10 07:59:58;;;;;;;0.50;0.10;;;6.50;99.90;;;;;;4805193;29;20898;-67
2023/01/10 08:02:26;;;;;;;0.50;0.20;;;6.50;99.90;;;;;;4805085;29;20958;-67
2023/01/10 08:04:54;;;;;;;2.97;2.77;;;6.50;99.90;;;;;;4805407;29;20861;-68
2023/01/10 08:07:22;;;;;;;8.17;3.10;;;6.40;99.90;;;;;;4805525;29;20450;-67
2023/01/10 08:09:50;;;;;;;1.37;0.80;;;6.50;99.90;;;;;;4805118;29;20843;-67
2023/01/10 08:12:20;;;;;;;0.50;0.10;;;6.50;99.90;;;;;;4804330;29;20455;-66
2023/01/10 08:14:47;;;;;;;0.50;0.30;;;6.50;99.90;;;;;;4804947;29;20486;-68
2023/01/10 08:17:15;;;;;;;0.70;0.23;;;6.60;99.90;;;;;;4804746;29;20486;-66
2023/01/10 08:19:43;;;;;;;4.73;0.63;;;6.60;99.90;;;;;;4805109;29;20458;-67
2023/01/10 08:22:11;;;;;;;0.50;0.10;;;6.60;99.90;;;;;;4804288;29;20461;-67
2023/01/10 08:24:39;;;;;;;0.50;0.10;;;6.60;99.90;;;;;;4805089;29;20478;-69
2023/01/10 08:27:06;;;;;;;0.50;0.10;;;6.60;99.90;;;;;;4804938;29;20458;-68
2023/01/10 08:29:35;;;;;;;0.50;0.10;;;6.70;99.90;;;;;;4805543;29;20450;-68
2023/01/10 08:32:04;;;;;;;0.50;0.10;;;6.70;99.90;;;;;;4805679;29;20454;-70
2023/01/10 08:34:31;;;;;;;0.50;0.20;;;6.90;99.90;;;;;;4805156;29;20534;-66
2023/01/10 08:36:59;;;;;;;0.50;0.10;;;6.90;99.90;;;;;;4804388;29;20591;-69
2023/01/10 08:39:29;;;;;;;0.60;0.20;;;6.80;99.90;;;;;;4804895;29;20462;-67
2023/01/10 08:41:57;;;;;;;0.60;0.40;;;6.80;99.90;;;;;;4804674;29;20459;-68
2023/01/10 08:44:25;;;;;;;0.50;0.10;;;7.00;99.90;;;;;;4804968;29;20486;-68
2023/01/10 08:46:55;;;;;;;0.50;0.10;;;7.00;99.90;;;;;;4804661;29;20457;-68
2023/01/10 08:49:23;;;;;;;0.50;0.10;;;7.10;99.90;;;;;;4804496;29;20454;-67
2023/01/10 08:51:51;;;;;;;0.50;0.10;;;;;;;;;;4804767;29;20466;-68
2023/01/10 08:54:19;;;;;;;0.50;0.20;;;7.10;99.90;;;;;;4804597;29;20558;-67
2023/01/10 08:56:47;;;;;;;0.50;0.10;;;7.10;99.90;;;;;;4804577;29;20497;-67
2023/01/10 08:59:15;;;;;;;0.50;0.10;;;7.10;99.90;;;;;;4804579;29;20454;-68
2023/01/10 09:01:43;;;;;;;0.50;0.10;;;7.20;99.90;;;;;;4804939;29;20965;-68
2023/01/10 09:04:12;;;;;;;0.50;0.10;;;7.30;99.90;;;;;;4804311;29;20457;-67
2023/01/10 09:06:40;;;;;;;0.50;0.10;;;7.30;99.90;;;;;;4804526;29;20453;-68
2023/01/10 09:09:08;;;;;;;0.50;0.10;;;7.20;99.90;;;;;;4814528;29;20460;-70
2023/01/10 09:11:36;;;;;;;0.50;0.10;;;7.20;99.90;;;;;;4816961;29;20976;-70
2023/01/10 09:14:06;;;;;;;0.50;0.10;;;7.30;99.90;;;;;;4806837;29;20469;-69
2023/01/10 09:16:34;;;;;;;0.60;0.50;;;7.30;99.90;;;;;;4818380;29;20503;-69
2023/01/10 09:19:02;;;;;;;0.50;0.10;;;7.30;99.90;;;;;;4819741;29;20991;-70
2023/01/10 09:21:32;;;;;;;0.50;0.20;;;7.30;99.90;;;;;;4817790;29;20462;-69
2023/01/10 09:24:00;;;;;;;0.50;0.10;;;7.40;99.90;;;;;;4817303;29;20461;-67
2023/01/10 09:26:27;;;;;;;0.50;0.10;;;7.40;99.90;;;;;;4824805;29;20454;-69
2023/01/10 09:28:55;;;;;;;0.50;0.10;;;7.50;99.90;;;;;;4822989;29;20964;-66
2023/01/10 09:31:23;;;;;;;5.23;0.73;;;7.50;99.90;;;;;;4825098;29;20461;-68
2023/01/10 09:33:51;;;;;;;4.93;1.90;;;7.50;99.90;;;;;;4821435;29;20783;-68
2023/01/10 09:36:18;;;;;;;0.50;0.10;;;7.30;99.90;;;;;;4825332;29;20469;-68
2023/01/10 09:38:48;;;;;;;0.50;0.30;;;7.30;99.90;;;;;;4826094;29;20544;-67
2023/01/10 09:41:38;;;;;;;0.70;0.43;;;7.20;99.90;;;;;;4820337;29;20458;-67
2023/01/10 09:44:18;;;;;;;0.50;0.20;;;7.30;99.90;;;;;;4825523;29;20457;-68
2023/01/10 09:46:52;;;;;;;2.40;0.90;;;7.30;99.90;;;;;;4819116;29;20870;-67
2023/01/10 09:49:32;;;;;;;0.50;0.10;;;7.40;99.90;;;;;;4826022;29;20449;-67
2023/01/10 09:52:07;;;;;;;3.13;0.40;;;9.10;99.90;;;;;;4820536;29;20458;-67
2023/01/10 09:54:40;;;;;;;0.60;0.30;;;7.40;99.90;;;;;;4807977;29;20565;-67
2023/01/10 09:57:14;;;;;;;0.90;0.47;;;7.40;99.90;;;;;;4807777;29;20554;-67
2023/01/10 09:59:44;;;;;;;0.50;0.10;;;7.50;99.90;;;;;;4792376;29;20442;-67
2023/01/10 10:02:23;;;;;;;1.17;0.47;;;7.50;99.90;;;;;;4806627;29;20488;-67
2023/01/10 10:05:07;;;;;;;1.57;1.47;;;7.60;99.90;;;;;;4806952;29;20477;-69
2023/01/10 10:07:35;;;;;;;0.50;0.20;;;7.60;99.90;;;;;;4807396;29;20519;-67
2023/01/10 10:10:06;;;;;;;1.80;0.40;;;7.60;99.90;;;;;;4809588;29;20450;-67
2023/01/10 10:12:43;;;;;;;2.00;1.90;;;7.70;99.90;;;;;;4806257;29;20537;-67
2023/01/10 10:15:23;;;;;;;2.10;0.30;;;7.70;99.90;;;;;;4806546;29;20486;-68
2023/01/10 10:18:00;;;;;;;4.93;0.73;;;7.70;99.90;;;;;;4808024;29;20545;-67
2023/01/10 10:20:42;;;;;;;0.50;0.13;;;7.70;99.90;;;;;;4824629;29;20449;-69
2023/01/10 10:23:27;;;;;;;0.50;0.10;;;7.80;99.90;;;;;;4807785;29;20458;-67
2023/01/10 10:26:04;;;;;;;0.70;0.30;;;7.80;99.90;;;;;;4807049;29;20481;-67
2023/01/10 10:29:05;;;;;;;0.70;0.50;;;7.80;99.90;;;;;;4807337;29;20451;-67
2023/01/10 10:31:47;;;;;;;0.50;0.10;;;7.80;99.90;;;;;;4806775;29;20446;-68
2023/01/10 10:34:24;;;;;;;0.97;0.40;;;7.90;99.90;;;;;;4825132;29;20981;-68
2023/01/10 10:36:55;;;;;;;0.50;0.20;;;7.90;99.90;;;;;;4815830;29;20461;-69
2023/01/10 10:39:37;;;;;;;6.03;0.30;;;8.00;99.90;;;;;;4806992;29;20450;-67
2023/01/10 10:42:12;;;;;;;0.50;0.10;;;8.00;99.90;;;;;;4819361;29;20453;-68
2023/01/10 10:44:45;;;;;;;0.80;0.50;;;8.10;99.90;;;;;;4820340;29;20481;-67
2023/01/10 10:47:16;;;;;;;0.50;0.20;;;8.20;99.90;;;;;;4806102;29;20494;-67
2023/01/10 10:49:49;;;;;;;0.50;0.30;;;8.30;99.90;;;;;;4808185;29;20458;-70
2023/01/10 10:52:23;;;;;;;2.40;0.63;;;8.40;99.90;;;;;;4823985;29;20449;-69
2023/01/10 10:54:52;;;;;;;0.60;0.43;;;8.50;99.90;;;;;;4818210;29;20481;-69
2023/01/10 10:57:26;;;;;;;0.50;0.20;;;8.60;99.90;;;;;;4806057;29;20482;-68
2023/01/10 10:59:56;;;;;;;2.03;1.30;;;8.50;99.90;;;;;;4812821;29;20814;-70
2023/01/10 11:02:26;;;;;;;0.50;0.20;;;8.30;99.90;;;;;;4823860;29;20889;-68
2023/01/10 11:04:58;;;;;;;0.50;0.30;;;8.20;99.90;;;;;;4817679;29;20489;-68
2023/01/10 11:07:29;;;;;;;0.50;0.10;;;8.30;99.90;;;;;;4806066;29;20478;-69
2023/01/10 11:12:46;;;;;;;0.60;0.50;;;8.20;99.90;;;;;;4801395;29;20454;-68
2023/01/10 11:15:36;;;;;;;0.50;0.20;;;8.20;99.90;;;;;;4805649;29;20481;-68
2023/01/10 11:18:06;;;;;;;0.50;0.20;;;8.20;99.90;;;;;;4810135;29;20489;-68
2023/01/10 11:20:35;;;;;;;1.53;1.03;;;;;;;;;;4817638;29;20458;-68
2023/01/10 11:23:04;;;;;;;0.50;0.20;;;8.20;99.90;;;;;;4812793;29;20470;-69
2023/01/10 11:25:33;;;;;;;0.50;0.10;;;8.20;99.90;;;;;;4821518;29;20469;-70
2023/01/10 11:28:04;;;;;;;2.87;0.67;;;8.30;99.90;;;;;;4823094;29;20461;-67
2023/01/10 11:30:35;;;;;;;4.63;1.27;;;8.30;99.90;;;;;;4823802;29;20957;-69
2023/01/10 11:33:06;;;;;;;2.60;0.43;;;8.20;99.90;;;;;;4823659;29;20456;-68
2023/01/10 11:35:37;;;;;;;0.50;0.10;;;8.30;99.90;;;;;;4818110;29;20490;-70
2023/01/10 11:38:18;;;;;;;0.50;0.10;;;8.30;99.90;;;;;;4806855;29;20486;-69
2023/01/10 11:40:54;;;;;;;0.50;0.10;;;8.30;99.90;;;;;;4806042;29;20461;-70
2023/01/10 11:43:29;;;;;;;0.50;0.20;;;8.40;99.90;;;;;;4807118;29;20461;-69
2023/01/10 11:46:01;;;;;;;11.83;1.60;;;8.40;99.90;;;;;;4805843;29;20916;-68
2023/01/10 11:48:42;;;;;;;2.63;1.03;;;8.40;99.90;;;;;;4806852;29;20454;-68
2023/01/10 11:51:34;;;;;;;3.50;0.73;;;8.40;99.90;;;;;;4806384;29;20470;-69
2023/01/10 11:54:04;;;;;;;3.40;1.07;;;8.30;99.90;;;;;;4805736;29;20537;-68
2023/01/10 11:56:35;;;;;;;0.50;0.10;;;8.30;99.90;;;;;;4805157;29;20542;-69
2023/01/10 11:59:11;;;;;;;0.60;0.43;;;8.30;99.90;;;;;;4804855;29;20481;-67
2023/01/10 12:01:43;;;;;;;0.50;0.10;;;8.40;99.90;;;;;;4805092;29;20492;-69
2023/01/10 12:04:14;;;;;;;0.50;0.20;;;8.40;99.90;;;;;;4805665;29;20466;-69
2023/01/10 12:06:44;;;;;;;0.60;0.40;;;8.40;99.90;;;;;;4806850;29;20492;-67
2023/01/10 12:09:34;;;;;;;0.50;0.10;;;8.40;99.90;;;;;;4817260;29;20556;-70
2023/01/10 12:12:04;;;;;;;0.50;0.10;;;8.50;99.90;;;;;;4825711;29;20441;-70
2023/01/10 12:14:33;;;;;;;1.20;1.10;;;8.70;99.90;;;;;;4824945;29;20485;-69
2023/01/10 12:17:03;;;;;;;1.33;0.83;;;8.70;99.90;;;;;;4825427;29;20453;-67
2023/01/10 12:19:31;;;;;;;0.50;0.10;;;8.70;99.90;;;;;;4824513;29;20520;-69
2023/01/10 12:22:05;;;;;;;0.50;0.10;;;8.70;99.90;;;;;;4823641;29;20586;-69
2023/01/10 12:24:36;;;;;;;34.53;1.13;;;8.70;99.90;;;;;;4824849;29;20474;-68
2023/01/10 12:27:05;;;;;;;2.60;1.07;;;8.70;99.90;;;;;;4824978;29;20460;-69
2023/01/10 12:29:39;;;;;;;0.50;0.10;;;8.70;99.90;;;;;;4824958;29;20532;-69
2023/01/10 12:32:16;;;;;;;0.50;0.13;;;8.70;99.90;;;;;;4824574;29;20453;-68
2023/01/10 12:34:48;;;;;;;0.70;0.60;;;8.70;99.90;;;;;;4825157;29;20563;-70
2023/01/10 12:37:22;;;;;;;0.50;0.10;;;8.80;99.90;;;;;;4825200;29;20449;-68
2023/01/10 12:39:55;;;;;;;0.50;0.10;;;8.70;99.90;;;;;;4824230;29;20496;-69
2023/01/10 12:45:29;;;;;;;0.50;0.20;;;8.50;99.90;;;;;;4824583;29;20502;-67
2023/01/10 12:48:03;;;;;;;1.53;0.40;;;8.50;99.90;;;;;;4824680;29;20449;-69
2023/01/10 12:50:35;;;;;;;0.50;0.20;;;8.40;99.90;;;;;;4824404;29;20461;-68
2023/01/10 12:53:06;;;;;;;0.50;0.10;;;8.50;99.90;;;;;;4824684;29;20457;-69
2023/01/10 12:55:39;;;;;;;1.03;0.47;;;8.60;99.90;;;;;;4824871;29;20473;-72
2023/01/10 12:58:13;;;;;;;0.50;0.10;;;8.60;99.90;;;;;;4824524;29;20444;-67
2023/01/10 13:00:47;;;;;;;0.60;0.50;;;8.50;99.90;;;;;;4827938;29;20817;-67
2023/01/10 13:03:20;;;;;;;0.60;0.50;;;8.50;99.90;;;;;;4827672;29;20874;-67
2023/01/10 13:05:50;;;;;;;0.50;0.10;;;8.50;99.90;;;;;;4827490;29;20941;-70
2023/01/10 13:08:23;;;;;;;0.50;0.10;;;8.50;99.90;;;;;;4827560;29;20951;-69
2023/01/10 13:10:54;;;;;;;3.43;1.70;;;8.50;99.90;;;;;;4827243;29;20464;-66
2023/01/10 13:13:29;;;;;;;2.97;0.40;;;8.50;99.90;;;;;;4827894;29;20810;-70
2023/01/10 13:16:14;;;;;;;7.20;0.60;;;8.50;99.90;;;;;;4827070;29;20477;-69
2023/01/10 13:18:58;;;;;;;0.50;0.10;;;8.50;99.90;;;;;;4828802;29;20916;-70
2023/01/10 13:21:27;;;;;;;0.50;0.10;;;;;;;;;;4825073;29;20877;-67
2023/01/10 13:23:59;;;;;;;4.10;0.30;;;8.50;99.90;;;;;;4820183;29;20472;-67
2023/01/10 13:26:44;;;;;;;1.43;1.33;;;8.40;99.90;;;;;;4825490;29;20488;-68
2023/01/10 13:29:18;;;;;;;0.50;0.10;;;8.40;99.90;;;;;;4827125;29;20945;-67
2023/01/10 13:31:48;;;;;;;0.50;0.10;;;8.40;99.90;;;;;;4827527;29;20448;-68
2023/01/10 13:34:18;;;;;;;0.50;0.20;;;8.40;99.90;;;;;;4826742;29;20548;-67
2023/01/10 13:36:52;;;;;;;0.50;0.30;;;8.40;99.90;;;;;;4826375;29;20468;-67
2023/01/10 13:39:29;;;;;;;0.50;0.20;;;8.40;99.90;;;;;;4825866;29;20493;-67
2023/01/10 13:45:25;;;;;;;0.50;0.10;;;8.30;99.90;;;;;;4825808;29;20469;-68
2023/01/10 13:48:25;;;;;;;0.70;0.40;;;8.30;99.90;;;;;;4825519;29;20954;-68
2023/01/10 13:51:22;;;;;;;0.67;0.20;;;8.30;99.90;;;;;;4825376;29;20466;-68
2023/01/10 13:53:55;;;;;;;0.83;0.83;;;8.30;99.90;;;;;;4811726;29;20534;-67
2023/01/10 13:56:32;;;;;;;0.60;0.30;;;8.30;99.90;;;;;;4825780;29;20445;-68
2023/01/10 14:04:39;;;;;;;0.50;0.10;;;8.10;99.90;;;;;;4822448;29;21008;-67
2023/01/10 14:07:21;;;;;;;0.50;0.10;;;8.10;99.90;;;;;;4825321;29;20445;-69
2023/01/10 14:09:51;;;;;;;0.60;0.40;;;8.20;99.90;;;;;;4824926;29;20450;-67
2023/01/10 14:12:26;;;;;;;0.50;0.20;;;8.20;99.90;;;;;;4824894;29;20449;-68
2023/01/10 14:14:58;;;;;;;0.50;0.10;;;8.30;99.90;;;;;;4824897;29;20485;-69
2023/01/10 14:17:28;;;;;;;0.50;0.10;;;8.30;99.90;;;;;;4824997;29;20466;-68
2023/01/10 14:20:19;;;;;;;0.50;0.10;;;8.30;99.90;;;;;;4824631;29;20485;-69
2023/01/10 14:23:05;;;;;;;0.60;0.37;;;8.30;99.90;;;;;;4825033;29;20454;-68
2023/01/10 14:25:35;;;;;;;2.90;1.90;;;8.30;99.90;;;;;;4824449;29;21029;-68
2023/01/10 14:28:05;;;;;;;1.00;0.90;;;8.20;99.90;;;;;;4824430;29;21011;-69
2023/01/10 14:30:34;;;;;;;0.50;0.10;;;8.00;99.90;;;;;;4824287;29;20989;-69
2023/01/10 14:33:07;;;;;;;0.73;0.50;;;8.00;99.90;;;;;;4824494;29;21043;-68
2023/01/10 14:35:39;;;;;;;0.60;0.30;;;8.00;99.90;;;;;;4824383;29;20485;-69
2023/01/10 14:38:14;;;;;;;0.50;0.20;;;8.00;99.90;;;;;;4824816;29;20868;-68
2023/01/10 14:40:45;;;;;;;3.13;0.37;;;8.00;99.90;;;;;;4824588;29;20512;-69
2023/01/10 14:43:15;;;;;;;7.80;2.63;;;8.00;99.90;;;;;;4825058;29;20898;-67
2023/01/10 14:45:49;;;;;;;6.57;0.83;;;8.00;99.90;;;;;;4824779;29;20572;-67
2023/01/10 14:48:30;;;;;;;0.50;0.10;;;8.00;99.90;;;;;;4825045;29;20457;-68
2023/01/10 14:51:15;;;;;;;0.50;0.10;;;8.10;99.90;;;;;;4824211;29;20510;-68
2023/01/10 14:53:43;;;;;;;0.90;0.70;;;8.10;99.90;;;;;;4824376;29;20854;-69
2023/01/10 14:56:22;;;;;;;0.50;0.10;;;8.10;99.90;;;;;;4823868;29;20480;-68
2023/01/10 14:58:50;;;;;;;0.50;0.10;;;8.10;99.90;;;;;;4824259;29;20460;-68
2023/01/10 15:01:23;;;;;;;0.50;0.10;;;8.20;99.90;;;;;;4823849;29;20489;-70
2023/01/10 15:03:51;;;;;;;0.50;0.20;;;8.20;99.90;;;;;;4824631;29;20449;-69
2023/01/10 15:06:21;;;;;;;0.50;0.10;;;8.20;99.90;;;;;;4823977;29;20476;-67
2023/01/10 15:08:59;;;;;;;2.10;0.73;;;8.20;99.90;;;;;;4825070;29;20453;-68
2023/01/10 15:11:28;;;;;;;0.57;0.23;;;8.20;99.90;;;;;;4824981;29;20506;-68
2023/01/10 15:14:02;;;;;;;1.17;1.07;;;8.10;99.90;;;;;;4825488;29;20453;-70
2023/01/10 15:16:30;;;;;;;0.50;0.10;;;8.10;99.90;;;;;;4808246;29;20466;-69
2023/01/10 15:18:58;;;;;;;0.50;0.10;;;8.20;99.90;;;;;;4805487;29;20453;-67
2023/01/10 15:21:27;;;;;;;0.50;0.10;;;8.20;99.90;;;;;;4803463;29;21199;-69
2023/01/10 15:23:55;;;;;;;0.70;0.20;;;8.10;99.90;;;;;;4816940;29;20454;-66
2023/01/10 15:26:28;;;;;;;4.00;0.87;;;8.10;99.90;;;;;;4810701;29;20892;-68
2023/01/10 15:29:09;;;;;;;0.50;0.10;;;8.10;99.90;;;;;;4805498;29;20901;-68
2023/01/10 15:31:38;;;;;;;0.50;0.10;;;8.10;99.90;;;;;;4807332;29;20454;-67
2023/01/10 15:34:14;;;;;;;0.50;0.10;;;8.20;99.90;;;;;;4805417;29;20801;-68
2023/01/10 15:36:46;;;;;;;0.50;0.10;;;8.20;99.90;;;;;;4806308;29;20450;-68
2023/01/10 15:39:20;;;;;;;0.50;0.10;;;8.20;99.90;;;;;;4805874;29;20462;-68
2023/01/10 15:41:49;;;;;;;0.83;0.77;;;8.20;99.90;;;;;;4805103;29;20537;-68
2023/01/10 15:44:32;;;;;;;0.70;0.47;;;8.20;99.90;;;;;;4805004;29;20462;-68
2023/01/10 15:47:00;;;;;;;0.50;0.10;;;8.20;99.90;;;;;;4805324;29;20468;-68
2023/01/10 15:49:29;;;;;;;0.50;0.10;;;8.20;99.90;;;;;;4804825;29;20465;-69
2023/01/10 15:51:58;;;;;;;0.50;0.10;;;8.20;99.90;;;;;;4805098;29;20461;-70
2023/01/10 15:54:31;;;;;;;0.50;0.23;;;8.20;99.90;;;;;;4805104;29;20474;-69
2023/01/10 15:57:08;;;;;;;0.50;0.10;;;8.20;99.90;;;;;;4805395;29;20813;-70
2023/01/10 15:59:38;;;;;;;0.50;0.10;;;8.20;99.90;;;;;;4804802;29;20528;-69
2023/01/10 16:02:24;;;;;;;0.50;0.10;;;8.20;99.90;;;;;;4805062;29;20465;-69
2023/01/10 16:04:55;;;;;;;0.50;0.10;;;8.20;99.90;;;;;;4813240;29;20912;-69
2023/01/10 16:07:27;;;;;;;0.50;0.10;;;8.20;99.90;;;;;;4813489;29;20466;-69
2023/01/10 16:09:59;;;;;;;0.50;0.20;;;8.20;99.90;;;;;;4810956;29;20476;-68
2023/01/10 16:15:22;;;;;;;0.50;0.10;;;8.20;99.90;;;;;;4815363;29;20497;-68
2023/01/10 16:17:50;;;;;;;0.50;0.10;;;8.20;99.90;;;;;;4812640;29;20451;-69
2023/01/10 16:20:19;;;;;;;0.50;0.10;;;8.20;99.90;;;;;;4804559;29;20485;-69
2023/01/10 16:22:49;;;;;;;0.50;0.10;;;8.20;99.90;;;;;;4804536;29;20450;-68
2023/01/10 16:25:19;;;;;;;0.50;0.10;;;8.20;99.90;;;;;;4804404;29;20846;-67
2023/01/10 16:27:48;;;;;;;0.50;0.10;;;8.20;99.90;;;;;;4804506;29;20517;-69
2023/01/10 16:30:23;;;;;;;0.97;0.97;;;8.20;99.90;;;;;;4804581;29;20483;-69
2023/01/10 16:32:51;;;;;;;0.50;0.13;;;8.20;99.90;;;;;;4804477;29;20480;-68
2023/01/10 16:35:19;;;;;;;0.50;0.10;;;8.20;99.90;;;;;;4807876;29;20518;-69
2023/01/10 16:37:48;;;;;;;0.50;0.10;;;8.10;99.90;;;;;;4808341;29;20458;-67
2023/01/10 16:40:22;;;;;;;8.77;1.80;;;8.10;99.90;;;;;;4808068;29;20516;-68
2023/01/10 16:45:35;;;;;;;0.50;0.20;;;8.10;99.90;;;;;;4808087;29;20478;-68
2023/01/10 16:48:03;;;;;;;0.50;0.10;;;8.10;99.90;;;;;;4808358;29;20458;-67
2023/01/10 16:50:31;;;;;;;0.50;0.10;;;;;;;;;;4807959;29;20458;-69
2023/01/10 16:53:00;;;;;;;0.50;0.10;;;8.10;99.90;;;;;;4808087;29;20461;-67
2023/01/10 16:55:39;;;;;;;0.60;0.50;;;8.10;99.90;;;;;;4808776;29;20827;-68
2023/01/10 16:58:08;;;;;;;0.50;0.10;;;8.10;99.90;;;;;;4808827;29;20457;-71
2023/01/10 17:00:36;;;;;;;0.50;0.10;;;8.00;99.90;;;;;;4821141;29;20503;-67
2023/01/10 17:03:08;;;;;;;0.50;0.10;;;8.00;99.90;;;;;;4818801;29;20449;-67
2023/01/10 17:05:37;;;;;;;0.60;0.40;;;8.00;99.90;;;;;;4806100;29;20846;-68
2023/01/10 17:08:13;;;;;;;0.50;0.10;;;8.10;99.90;;;;;;4811265;29;20453;-67
2023/01/10 17:10:41;;;;;;;0.50;0.10;;;8.10;99.90;;;;;;4827061;29;20452;-71
2023/01/10 17:13:11;;;;;;;0.50;0.20;;;8.10;99.90;;;;;;4826454;29;20457;-71
2023/01/10 17:15:39;;;;;;;0.50;0.10;;;8.10;99.90;;;;;;4852839;24;20843;-72
2023/01/10 17:18:06;;;;;;;0.50;0.10;;;8.10;99.90;;;;;;4830363;29;20453;-73
2023/01/10 17:20:34;;;;;;;0.50;0.10;;;8.00;99.90;;;;;;4833749;29;20485;-73
2023/01/10 17:23:02;;;;;;;0.50;0.10;;;8.10;99.90;;;;;;4830051;29;20456;-72
2023/01/10 17:25:31;;;;;;;0.50;0.10;;;8.10;99.90;;;;;;4831618;29;20476;-73
2023/01/10 17:27:59;;;;;;;0.50;0.10;;;8.10;99.90;;;;;;4833666;29;20457;-73
2023/01/10 17:30:27;;;;;;;0.50;0.10;;;8.10;99.90;;;;;;4833182;29;20460;-72
2023/01/10 17:32:56;;;;;;;0.50;0.10;;;8.10;99.90;;;;;;4824035;29;20458;-73
2023/01/10 17:35:27;;;;;;;0.50;0.10;;;8.10;99.90;;;;;;4816440;29;20478;-73
2023/01/10 17:37:55;;;;;;;0.50;0.10;;;8.10;99.90;;;;;;4812766;29;20458;-73
2023/01/10 17:40:24;;;;;;;0.50;0.10;;;8.10;99.90;;;;;;4810671;29;20462;-73
2023/01/10 17:42:54;;;;;;;0.80;0.53;;;8.10;99.90;;;;;;4819414;29;20473;-73
2023/01/10 17:45:22;;;;;;;0.60;0.10;;;8.10;99.90;;;;;;4828610;29;20478;-73